Terminal Aerodrome Forecast
Issued by NWS

Home | Current Version | Previous Version | Graphics & Text | Print | Product List | Glossary On
Versions: 1 2 3 4 5 6 7 8 9 10 11 12 13 14 15 16 17 18 19 20 21 22 23 24
000
FTUS43 KGRB 012100 AAA
TAFAUW
TAF AMD
KAUW 012148Z 0122/0218 26009G16KT 4SM -SN OVC025
     FM012300 27011G17KT P6SM SCT025 SCT040
     FM020600 30007KT P6SM SKC=

USA.gov is the U.S. government's official web portal to all federal, state and local government web resources and services.